createdAt,value
2017-08-20T00:00:30.748Z,4.20
2017-08-20T00:02:59.094Z,4.50
2017-08-20T00:05:27.449Z,3.93
2017-08-20T00:07:55.823Z,3.90
2017-08-20T00:10:24.180Z,4.00
2017-08-20T00:12:52.574Z,3.73
2017-08-20T00:15:20.962Z,3.73
2017-08-20T00:17:49.332Z,3.83
2017-08-20T00:20:17.355Z,3.93
2017-08-20T00:22:45.798Z,3.90
2017-08-20T00:25:14.835Z,3.83
2017-08-20T00:27:43.209Z,4.10
2017-08-20T00:30:11.216Z,3.93
2017-08-20T00:32:39.579Z,4.07
2017-08-20T00:35:08.222Z,4.10
2017-08-20T00:37:36.582Z,4.00
2017-08-20T00:40:04.956Z,4.50
2017-08-20T00:42:33.349Z,3.63
2017-08-20T00:45:01.828Z,4.60
2017-08-20T00:47:30.188Z,3.70
2017-08-20T00:49:58.535Z,4.00
2017-08-20T00:52:26.896Z,4.00
2017-08-20T00:54:55.241Z,4.23
2017-08-20T00:57:23.830Z,4.50
2017-08-20T00:59:52.171Z,3.40
2017-08-20T01:02:20.543Z,4.77
2017-08-20T01:04:48.889Z,4.37
2017-08-20T01:07:17.258Z,3.80
2017-08-20T01:09:45.622Z,4.60
2017-08-20T01:12:13.989Z,4.50
2017-08-20T01:14:42.546Z,4.47
2017-08-20T01:17:10.921Z,4.00
2017-08-20T01:19:38.946Z,4.17
2017-08-20T01:22:08.078Z,4.37
2017-08-20T01:24:36.436Z,4.17
2017-08-20T01:27:04.786Z,4.53
2017-08-20T01:29:33.144Z,4.40
2017-08-20T01:32:01.516Z,4.33
2017-08-20T01:34:30.555Z,4.50
2017-08-20T01:36:58.918Z,5.67
2017-08-20T01:39:27.326Z,4.33
2017-08-20T01:41:55.677Z,3.97
2017-08-20T01:44:24.041Z,4.23
2017-08-20T01:46:52.402Z,4.20
2017-08-20T01:49:20.945Z,4.70
2017-08-20T01:51:49.408Z,4.17
2017-08-20T01:54:17.785Z,5.00
2017-08-20T01:56:46.261Z,4.60
2017-08-20T01:59:14.624Z,5.03
2017-08-20T02:01:42.973Z,4.63
2017-08-20T02:04:11.335Z,4.93
2017-08-20T02:06:39.693Z,4.73
2017-08-20T02:09:08.142Z,4.63
2017-08-20T02:11:36.519Z,5.00
2017-08-20T02:14:04.880Z,5.27
2017-08-20T02:16:33.330Z,5.03
2017-08-20T02:19:01.726Z,4.73
2017-08-20T02:21:30.091Z,5.40
2017-08-20T02:23:58.453Z,5.33
2017-08-20T02:26:26.875Z,5.20
2017-08-20T02:28:55.217Z,5.20
2017-08-20T02:31:23.603Z,4.73
2017-08-20T02:33:51.973Z,5.30
2017-08-20T02:36:20.326Z,5.30
2017-08-20T02:38:48.677Z,5.20
2017-08-20T02:41:17.042Z,5.97
2017-08-20T02:43:45.407Z,6.70
2017-08-20T02:46:13.790Z,6.37
2017-08-20T02:48:42.362Z,6.00
2017-08-20T02:51:10.724Z,5.50
2017-08-20T02:53:40.526Z,5.97
2017-08-20T02:56:08.894Z,5.50
2017-08-20T02:58:37.343Z,5.70
2017-08-20T03:01:05.703Z,5.90
2017-08-20T03:03:35.074Z,6.03
2017-08-20T03:06:03.451Z,5.30
2017-08-20T03:08:31.928Z,6.03
2017-08-20T03:11:00.284Z,5.10
2017-08-20T03:13:28.680Z,5.23
2017-08-20T03:15:57.032Z,5.63
2017-08-20T03:18:25.384Z,6.13
2017-08-20T03:20:53.732Z,5.33
2017-08-20T03:23:22.098Z,5.73
2017-08-20T03:25:50.454Z,6.10
2017-08-20T03:28:18.807Z,5.63
2017-08-20T03:30:47.177Z,5.33
2017-08-20T03:33:15.543Z,6.57
2017-08-20T03:35:43.911Z,5.73
2017-08-20T03:38:12.262Z,6.53
2017-08-20T03:40:40.630Z,6.00
2017-08-20T03:43:08.983Z,6.57
2017-08-20T03:45:37.342Z,6.17
2017-08-20T03:48:05.704Z,5.50
2017-08-20T03:50:34.078Z,5.77
2017-08-20T03:53:02.435Z,7.03
2017-08-20T03:55:30.799Z,6.37
2017-08-20T03:57:59.162Z,5.93
2017-08-20T04:00:27.742Z,5.90
2017-08-20T04:02:56.095Z,5.90
2017-08-20T04:05:24.481Z,5.80
2017-08-20T04:07:52.837Z,5.77
2017-08-20T04:10:21.199Z,6.13
2017-08-20T04:12:49.554Z,6.30
2017-08-20T04:15:17.908Z,6.47
2017-08-20T04:17:46.257Z,6.37
2017-08-20T04:20:14.758Z,5.50
2017-08-20T04:22:43.119Z,6.00
2017-08-20T04:25:11.479Z,6.53
2017-08-20T04:27:39.835Z,6.73
2017-08-20T04:30:08.197Z,6.47
2017-08-20T04:32:36.562Z,6.13
2017-08-20T04:35:04.906Z,6.97
2017-08-20T04:37:33.266Z,7.30
2017-08-20T04:40:01.626Z,6.50
2017-08-20T04:42:29.633Z,6.23
2017-08-20T04:44:58.003Z,6.63
2017-08-20T04:47:26.362Z,5.97
2017-08-20T04:49:54.751Z,5.53
2017-08-20T04:52:23.114Z,6.83
2017-08-20T04:54:51.526Z,6.10
2017-08-20T04:57:19.883Z,6.50
2017-08-20T04:59:48.346Z,6.37
2017-08-20T05:02:16.707Z,6.67
2017-08-20T05:04:45.184Z,6.90
2017-08-20T05:07:13.522Z,7.53
2017-08-20T05:09:42.646Z,11.00
2017-08-20T05:12:11.011Z,10.07
2017-08-20T05:14:39.503Z,9.30
2017-08-20T05:17:07.982Z,7.10
2017-08-20T05:19:36.410Z,6.80
2017-08-20T05:22:04.761Z,6.90
2017-08-20T05:24:33.114Z,7.10
2017-08-20T05:27:01.489Z,6.93
2017-08-20T05:29:29.923Z,6.60
2017-08-20T05:31:58.388Z,6.70
2017-08-20T05:34:26.744Z,6.90
2017-08-20T05:36:55.127Z,6.53
2017-08-20T05:39:23.482Z,6.27
2017-08-20T05:41:51.841Z,8.13
2017-08-20T05:44:20.200Z,7.27
2017-08-20T05:46:48.561Z,6.80
2017-08-20T05:49:16.969Z,6.93
2017-08-20T05:51:45.319Z,6.93
2017-08-20T05:54:13.699Z,6.40
2017-08-20T05:56:42.065Z,6.30
2017-08-20T05:59:11.395Z,6.70
2017-08-20T06:01:39.754Z,6.67
2017-08-20T06:04:08.115Z,6.07
2017-08-20T06:06:37.244Z,7.40
2017-08-20T06:09:04.716Z,7.47
2017-08-20T06:11:33.236Z,6.20
2017-08-20T06:14:02.570Z,6.43
2017-08-20T06:16:30.926Z,5.93
2017-08-20T06:18:59.294Z,6.17
2017-08-20T06:21:27.995Z,7.27
2017-08-20T06:23:56.434Z,6.17
2017-08-20T06:26:24.791Z,6.27
2017-08-20T06:28:53.155Z,6.17
2017-08-20T06:31:21.563Z,6.90
2017-08-20T06:33:49.915Z,7.47
2017-08-20T06:36:18.299Z,6.37
2017-08-20T06:38:46.666Z,6.07
2017-08-20T06:41:15.319Z,6.93
2017-08-20T06:43:43.674Z,5.70
2017-08-20T06:46:12.073Z,6.20
2017-08-20T06:48:40.315Z,5.57
2017-08-20T06:51:08.696Z,6.27
2017-08-20T06:53:37.044Z,6.20
2017-08-20T06:56:05.406Z,6.03
2017-08-20T06:58:33.782Z,6.20
2017-08-20T07:01:02.133Z,6.30
2017-08-20T07:03:30.504Z,5.80
2017-08-20T07:05:58.849Z,6.20
2017-08-20T07:08:27.249Z,5.90
2017-08-20T07:10:55.615Z,5.10
2017-08-20T07:13:23.987Z,6.00
2017-08-20T07:15:52.375Z,6.50
2017-08-20T07:18:20.739Z,6.33
2017-08-20T07:20:49.178Z,5.90
2017-08-20T07:23:17.542Z,6.20
2017-08-20T07:25:45.906Z,6.30
2017-08-20T07:28:14.267Z,5.60
2017-08-20T07:30:42.736Z,5.97
2017-08-20T07:33:11.213Z,6.00
2017-08-20T07:35:39.642Z,6.40
2017-08-20T07:38:08.038Z,6.33
2017-08-20T07:40:36.422Z,5.97
2017-08-20T07:43:04.795Z,6.30
2017-08-20T07:45:33.161Z,5.17
2017-08-20T07:48:02.957Z,4.93
2017-08-20T07:50:31.484Z,5.73
2017-08-20T07:52:59.836Z,5.70
2017-08-20T07:55:28.011Z,5.67
2017-08-20T07:57:56.370Z,5.67
2017-08-20T08:00:24.790Z,5.30
2017-08-20T08:02:53.287Z,5.90
2017-08-20T08:05:21.642Z,5.80
2017-08-20T08:07:50.010Z,5.70
2017-08-20T08:10:18.488Z,6.20
2017-08-20T08:12:46.914Z,5.23
2017-08-20T08:15:15.274Z,5.60
2017-08-20T08:17:43.648Z,5.63
2017-08-20T08:20:12.008Z,5.60
2017-08-20T08:22:40.368Z,5.87
2017-08-20T08:25:08.746Z,5.43
2017-08-20T08:27:37.195Z,5.63
2017-08-20T08:30:05.553Z,5.43
2017-08-20T08:32:34.516Z,4.83
2017-08-20T08:35:02.884Z,5.30
2017-08-20T08:37:31.315Z,7.07
2017-08-20T08:39:59.777Z,6.27
2017-08-20T08:42:28.118Z,5.60
2017-08-20T08:44:56.506Z,5.93
2017-08-20T08:47:24.882Z,5.43
2017-08-20T08:49:53.246Z,5.30
2017-08-20T08:52:21.604Z,5.50
2017-08-20T08:54:50.072Z,5.67
2017-08-20T08:57:18.447Z,5.30
2017-08-20T08:59:47.013Z,4.73
2017-08-20T09:02:15.375Z,5.50
2017-08-20T09:04:43.745Z,5.27
2017-08-20T09:07:12.088Z,5.20
2017-08-20T09:09:40.459Z,5.20
2017-08-20T09:12:08.815Z,4.70
2017-08-20T09:14:37.385Z,4.70
2017-08-20T09:17:05.741Z,6.07
2017-08-20T09:19:34.102Z,4.83
2017-08-20T09:22:02.309Z,4.90
2017-08-20T09:24:30.660Z,4.97
2017-08-20T09:26:59.037Z,4.77
2017-08-20T09:29:27.399Z,5.03
2017-08-20T09:31:56.545Z,4.80
2017-08-20T09:34:24.907Z,4.90
2017-08-20T09:36:53.259Z,5.60
2017-08-20T09:39:21.627Z,4.87
2017-08-20T09:41:50.032Z,4.80
2017-08-20T09:44:18.612Z,4.93
2017-08-20T09:46:46.962Z,5.00
2017-08-20T09:49:15.322Z,4.53
2017-08-20T09:51:44.661Z,4.83
2017-08-20T09:54:13.002Z,4.53
2017-08-20T09:56:41.365Z,4.90
2017-08-20T09:59:09.718Z,4.70
2017-08-20T10:01:38.371Z,5.20
2017-08-20T10:04:06.746Z,4.93
2017-08-20T10:06:35.102Z,4.00
2017-08-20T10:09:03.123Z,4.80
2017-08-20T10:11:31.490Z,4.53
2017-08-20T10:13:59.867Z,3.40
2017-08-20T10:16:28.229Z,3.53
2017-08-20T10:18:56.695Z,3.57
2017-08-20T10:21:25.047Z,3.40
2017-08-20T10:23:53.751Z,3.10
2017-08-20T10:26:22.130Z,3.33
2017-08-20T10:28:50.487Z,3.20
2017-08-20T10:31:18.880Z,4.70
2017-08-20T10:33:47.254Z,3.23
2017-08-20T10:36:15.609Z,3.50
2017-08-20T10:38:44.006Z,3.33
2017-08-20T10:41:12.368Z,3.70
2017-08-20T10:43:40.808Z,4.37
2017-08-20T10:46:09.166Z,3.60
2017-08-20T10:48:37.526Z,3.03
2017-08-20T10:51:05.896Z,3.93
2017-08-20T10:53:34.336Z,4.20
2017-08-20T10:56:02.703Z,4.70
2017-08-20T10:58:31.057Z,3.30
2017-08-20T11:00:59.409Z,4.50
2017-08-20T11:03:27.780Z,3.60
2017-08-20T11:05:56.156Z,3.87
2017-08-20T11:08:24.517Z,3.93
2017-08-20T11:10:52.895Z,3.80
2017-08-20T11:13:21.268Z,3.20
2017-08-20T11:15:49.624Z,2.90
2017-08-20T11:18:17.989Z,3.50
2017-08-20T11:20:47.624Z,3.03
2017-08-20T11:23:16.010Z,3.27
2017-08-20T11:25:44.373Z,3.30
2017-08-20T11:28:13.061Z,3.30
2017-08-20T11:30:41.591Z,3.50
2017-08-20T11:33:09.960Z,3.13
2017-08-20T11:35:38.331Z,2.87
2017-08-20T11:38:06.692Z,3.27
2017-08-20T11:40:35.049Z,3.27
2017-08-20T11:43:03.416Z,3.13
2017-08-20T11:45:31.845Z,2.87
2017-08-20T11:48:00.230Z,3.63
2017-08-20T11:50:28.851Z,3.00
2017-08-20T11:52:57.199Z,2.90
2017-08-20T11:55:25.554Z,3.57
2017-08-20T11:57:53.927Z,3.30
2017-08-20T12:00:22.285Z,2.90
2017-08-20T12:02:50.653Z,3.23
2017-08-20T12:05:19.030Z,2.70
2017-08-20T12:07:47.411Z,3.23
2017-08-20T12:10:15.787Z,2.80
2017-08-20T12:12:44.149Z,2.57
2017-08-20T12:15:12.652Z,2.40
2017-08-20T12:17:41.011Z,2.20
2017-08-20T12:20:09.368Z,2.70
2017-08-20T12:22:37.748Z,2.90
2017-08-20T12:25:06.094Z,2.77
2017-08-20T12:27:34.466Z,3.07
2017-08-20T12:30:02.822Z,2.97
2017-08-20T12:32:31.196Z,2.90
2017-08-20T12:34:59.572Z,2.90
2017-08-20T12:37:29.719Z,3.57
2017-08-20T12:39:58.077Z,2.50
2017-08-20T12:42:26.542Z,2.43
2017-08-20T12:44:54.911Z,2.33
2017-08-20T12:47:23.274Z,2.70
2017-08-20T12:49:51.865Z,2.50
2017-08-20T12:52:20.220Z,2.83
2017-08-20T12:54:48.597Z,2.80
2017-08-20T12:57:16.950Z,2.83
2017-08-20T12:59:45.422Z,2.80
2017-08-20T13:02:13.778Z,2.80
2017-08-20T13:04:42.274Z,2.73
2017-08-20T13:07:10.637Z,2.83
2017-08-20T13:09:38.988Z,2.80
2017-08-20T13:12:07.401Z,2.77
2017-08-20T13:14:35.750Z,2.90
2017-08-20T13:17:04.155Z,2.60
2017-08-20T13:19:32.503Z,3.17
2017-08-20T13:22:00.907Z,3.30
2017-08-20T13:24:29.258Z,2.53
2017-08-20T13:26:57.634Z,2.93
2017-08-20T13:29:25.991Z,2.90
2017-08-20T13:31:54.491Z,3.03
2017-08-20T13:34:22.888Z,3.03
2017-08-20T13:37:03.551Z,2.80
2017-08-20T13:56:22.705Z,2.77
2017-08-20T14:19:16.506Z,3.00
2017-08-20T14:21:44.867Z,2.73
2017-08-20T14:24:13.241Z,3.17
2017-08-20T14:26:41.717Z,3.37
2017-08-20T14:29:10.213Z,3.10
2017-08-20T14:31:38.674Z,3.20
2017-08-20T14:34:07.028Z,3.50
2017-08-20T14:36:35.495Z,2.93
2017-08-20T14:39:03.336Z,2.77
2017-08-20T14:41:32.381Z,3.73
2017-08-20T14:44:00.731Z,3.30
2017-08-20T14:46:29.082Z,3.17
2017-08-20T14:48:57.435Z,3.83
2017-08-20T14:51:25.802Z,4.10
2017-08-20T14:53:54.169Z,4.00
2017-08-20T14:56:22.539Z,4.17
2017-08-20T14:58:50.889Z,4.00
2017-08-20T15:01:19.251Z,3.70
2017-08-20T15:03:47.618Z,3.70
2017-08-20T15:06:15.979Z,3.63
2017-08-20T15:08:44.337Z,3.20
2017-08-20T15:11:12.696Z,3.37
2017-08-20T15:13:41.118Z,3.70
2017-08-20T15:16:09.490Z,3.47
2017-08-20T15:18:37.850Z,3.47
2017-08-20T15:21:06.218Z,4.10
2017-08-20T15:23:34.579Z,4.27
2017-08-20T15:26:02.944Z,4.20
2017-08-20T15:28:31.304Z,4.93
2017-08-20T15:30:59.653Z,5.57
2017-08-20T15:33:28.774Z,5.23
2017-08-20T15:35:57.131Z,5.50
2017-08-20T15:38:25.485Z,5.23
2017-08-20T15:40:53.852Z,5.20
2017-08-20T15:43:22.413Z,5.00
2017-08-20T15:45:50.870Z,5.70
2017-08-20T15:48:19.555Z,5.77
2017-08-20T15:50:47.904Z,5.37
2017-08-20T15:53:16.259Z,6.47
2017-08-20T15:55:45.374Z,5.40
2017-08-20T15:58:13.773Z,5.60
2017-08-20T16:00:42.135Z,5.47
2017-08-20T16:03:10.500Z,5.07
2017-08-20T16:05:38.879Z,5.20
2017-08-20T16:08:07.275Z,5.87
2017-08-20T16:10:35.625Z,5.70
2017-08-20T16:13:04.060Z,6.17
2017-08-20T16:15:32.428Z,5.80
2017-08-20T16:18:01.480Z,5.70
2017-08-20T16:20:29.869Z,6.13
2017-08-20T16:22:58.352Z,6.60
2017-08-20T16:25:26.699Z,6.53
2017-08-20T16:27:55.184Z,6.40
2017-08-20T16:30:23.547Z,7.00
2017-08-20T16:32:52.075Z,6.53
2017-08-20T16:35:20.442Z,6.87
2017-08-20T16:37:48.913Z,6.43
2017-08-20T16:40:17.254Z,6.60
2017-08-20T16:42:46.413Z,6.40
2017-08-20T16:45:14.791Z,6.33
2017-08-20T16:47:43.154Z,5.93
2017-08-20T16:50:11.533Z,5.70
2017-08-20T16:52:40.088Z,6.20
2017-08-20T16:55:08.440Z,5.63
2017-08-20T16:57:36.798Z,5.60
2017-08-20T17:00:05.910Z,6.30
2017-08-20T17:02:34.275Z,7.00
2017-08-20T17:05:02.682Z,6.43
2017-08-20T17:07:31.059Z,6.50
2017-08-20T17:09:59.407Z,6.00
2017-08-20T17:12:27.766Z,6.57
2017-08-20T17:14:56.278Z,6.60
2017-08-20T17:17:24.624Z,6.50
2017-08-20T17:19:52.999Z,5.77
2017-08-20T17:22:21.371Z,6.07
2017-08-20T17:24:49.806Z,6.30
2017-08-20T17:27:18.230Z,5.83
2017-08-20T17:29:46.594Z,5.17
2017-08-20T17:32:14.979Z,5.80
2017-08-20T17:34:44.098Z,4.77
2017-08-20T17:37:12.266Z,5.20
2017-08-20T17:39:40.639Z,5.70
2017-08-20T17:42:09.035Z,5.37
2017-08-20T17:44:37.382Z,5.47
2017-08-20T17:47:05.820Z,5.33
2017-08-20T17:49:34.180Z,5.43
2017-08-20T17:52:02.643Z,4.80
2017-08-20T17:54:31.070Z,5.07
2017-08-20T17:56:59.439Z,5.03
2017-08-20T17:59:27.803Z,5.50
2017-08-20T18:01:56.156Z,5.50
2017-08-20T18:04:24.517Z,5.97
2017-08-20T18:06:52.868Z,5.33
2017-08-20T18:09:21.376Z,5.00
2017-08-20T18:11:49.741Z,4.80
2017-08-20T18:14:18.116Z,4.90
2017-08-20T18:16:46.714Z,4.83
2017-08-20T18:19:15.058Z,4.90
2017-08-20T18:21:43.559Z,5.20
2017-08-20T18:24:11.941Z,5.03
2017-08-20T18:26:40.294Z,5.33
2017-08-20T18:29:08.673Z,5.50
2017-08-20T18:31:37.044Z,4.90
2017-08-20T18:34:05.446Z,5.00
2017-08-20T18:36:34.095Z,5.17
2017-08-20T18:39:02.911Z,4.60
2017-08-20T18:41:31.295Z,4.97
2017-08-20T18:43:59.655Z,4.57
2017-08-20T18:46:28.024Z,4.80
2017-08-20T18:48:56.398Z,4.60
2017-08-20T18:51:24.782Z,4.50
2017-08-20T18:53:53.199Z,4.80
2017-08-20T18:56:21.682Z,5.03
2017-08-20T18:58:50.050Z,4.70
2017-08-20T19:01:18.450Z,5.00
2017-08-20T19:03:46.826Z,4.83
2017-08-20T19:06:15.208Z,5.37
2017-08-20T19:08:43.575Z,4.50
2017-08-20T19:11:11.973Z,4.53
2017-08-20T19:13:40.339Z,4.60
2017-08-20T19:16:08.707Z,4.07
2017-08-20T19:18:37.975Z,4.23
2017-08-20T19:21:06.371Z,4.07
2017-08-20T19:23:35.423Z,4.07
2017-08-20T19:26:03.801Z,4.47
2017-08-20T19:28:32.165Z,3.50
2017-08-20T19:31:00.549Z,4.27
2017-08-20T19:33:28.984Z,3.80
2017-08-20T19:35:57.504Z,3.77
2017-08-20T19:38:25.875Z,3.80
2017-08-20T19:40:54.354Z,3.40
2017-08-20T19:43:22.924Z,3.97
2017-08-20T19:45:51.286Z,4.30
2017-08-20T19:48:19.656Z,4.30
2017-08-20T19:50:48.785Z,3.90
2017-08-20T19:53:17.358Z,3.90
2017-08-20T19:55:45.354Z,4.70
2017-08-20T19:58:13.968Z,3.80
2017-08-20T20:00:42.331Z,3.83
2017-08-20T20:03:10.682Z,4.00
2017-08-20T20:05:39.039Z,4.07
2017-08-20T20:08:07.409Z,4.00
2017-08-20T20:10:35.762Z,4.23
2017-08-20T20:13:04.137Z,4.00
2017-08-20T20:15:32.498Z,4.00
2017-08-20T20:18:01.634Z,4.17
2017-08-20T20:20:30.204Z,3.70
2017-08-20T20:22:58.693Z,4.70
2017-08-20T20:25:27.268Z,3.93
2017-08-20T20:27:55.698Z,4.00
2017-08-20T20:30:24.177Z,3.80
2017-08-20T20:32:52.531Z,3.93
2017-08-20T20:35:20.916Z,3.90
2017-08-20T20:37:49.270Z,4.00
2017-08-20T20:40:17.635Z,3.80
2017-08-20T20:42:46.208Z,4.10
2017-08-20T20:45:14.565Z,4.93
2017-08-20T20:47:42.952Z,4.27
2017-08-20T20:50:11.395Z,3.87
2017-08-20T20:52:39.771Z,4.10
2017-08-20T20:55:08.141Z,4.23
2017-08-20T20:57:36.495Z,4.10
2017-08-20T21:00:04.942Z,3.90
2017-08-20T21:02:33.300Z,4.20
2017-08-20T21:05:01.660Z,3.50
2017-08-20T21:07:30.986Z,3.60
2017-08-20T21:09:59.327Z,4.33
2017-08-20T21:12:27.719Z,4.10
2017-08-20T21:14:56.076Z,3.70
2017-08-20T21:17:25.201Z,4.67
2017-08-20T21:20:29.295Z,4.13
2017-08-20T21:22:57.677Z,3.97
2017-08-20T21:25:26.042Z,3.70
2017-08-20T21:27:54.406Z,4.27
2017-08-20T21:30:22.775Z,4.07
2017-08-20T21:32:51.136Z,4.00
2017-08-20T21:35:19.679Z,4.40
2017-08-20T21:37:48.054Z,4.50
2017-08-20T21:40:16.427Z,4.33
2017-08-20T21:42:44.907Z,4.23
2017-08-20T21:45:13.255Z,4.07
2017-08-20T21:47:41.607Z,3.90
2017-08-20T21:50:09.967Z,4.30
2017-08-20T21:52:38.343Z,4.10
2017-08-20T21:55:06.691Z,4.20
2017-08-20T21:57:35.066Z,3.90
2017-08-20T22:00:03.283Z,4.00
2017-08-20T22:02:31.640Z,3.93
2017-08-20T22:05:00.087Z,4.17
2017-08-20T22:07:28.434Z,3.90
2017-08-20T22:09:56.801Z,3.97
2017-08-20T22:12:25.156Z,4.00
2017-08-20T22:14:53.534Z,4.40
2017-08-20T22:17:21.889Z,4.00
2017-08-20T22:19:50.240Z,4.03
2017-08-20T22:22:18.614Z,4.33
2017-08-20T22:24:46.973Z,4.23
2017-08-20T22:27:15.320Z,4.07
2017-08-20T22:29:43.691Z,3.97
2017-08-20T22:32:12.043Z,4.03
2017-08-20T22:34:40.400Z,3.73
2017-08-20T22:37:08.767Z,4.10
2017-08-20T22:39:37.139Z,4.00
2017-08-20T22:42:05.485Z,4.33
2017-08-20T22:44:33.889Z,4.50
2017-08-20T22:47:02.520Z,3.60
2017-08-20T22:49:30.875Z,4.43
2017-08-20T22:51:59.241Z,5.17
2017-08-20T22:54:27.803Z,4.67
2017-08-20T22:56:56.238Z,4.80
2017-08-20T22:59:24.607Z,4.63
2017-08-20T23:01:52.963Z,4.60
2017-08-20T23:04:21.327Z,4.40
2017-08-20T23:06:49.694Z,4.47
2017-08-20T23:09:18.059Z,4.00
2017-08-20T23:11:46.416Z,4.10
2017-08-20T23:14:14.812Z,4.13
2017-08-20T23:16:43.190Z,4.30
2017-08-20T23:19:11.525Z,4.37
2017-08-20T23:21:39.891Z,4.33
2017-08-20T23:24:08.251Z,3.87
2017-08-20T23:26:36.690Z,4.40
2017-08-20T23:29:05.066Z,3.70
2017-08-20T23:31:33.545Z,4.03
2017-08-20T23:34:01.890Z,4.17
2017-08-20T23:36:30.251Z,4.30
2017-08-20T23:38:58.417Z,4.20
2017-08-20T23:41:26.775Z,3.80
2017-08-20T23:43:55.422Z,4.50
2017-08-20T23:46:23.905Z,4.17
2017-08-20T23:48:52.254Z,4.27
2017-08-20T23:51:20.654Z,4.30
2017-08-20T23:53:48.998Z,3.90
2017-08-20T23:56:17.355Z,4.33
2017-08-20T23:58:45.935Z,4.57
